createdAt,value
2018-01-07T00:00:44.376Z,20.66
2018-01-07T00:01:46.852Z,20.64
2018-01-07T00:02:49.329Z,20.62
2018-01-07T00:03:51.808Z,20.59
2018-01-07T00:04:54.265Z,20.58
2018-01-07T00:05:56.730Z,20.56
2018-01-07T00:06:59.208Z,20.54
2018-01-07T00:08:01.666Z,20.53
2018-01-07T00:09:04.146Z,20.50
2018-01-07T00:10:06.639Z,20.49
2018-01-07T00:11:09.102Z,20.47
2018-01-07T00:12:11.569Z,20.45
2018-01-07T00:13:14.022Z,20.44
2018-01-07T00:14:16.482Z,20.41
2018-01-07T00:15:18.968Z,20.39
2018-01-07T00:16:21.425Z,20.38
2018-01-07T00:17:23.878Z,20.37
2018-01-07T00:18:26.334Z,20.35
2018-01-07T00:19:28.790Z,20.34
2018-01-07T00:20:31.274Z,20.33
2018-01-07T00:21:33.750Z,20.31
2018-01-07T00:22:36.208Z,20.30
2018-01-07T00:23:38.662Z,20.29
2018-01-07T00:24:41.132Z,20.27
2018-01-07T00:25:43.608Z,20.26
2018-01-07T00:26:46.080Z,20.24
2018-01-07T00:27:48.533Z,20.23
2018-01-07T00:28:51.008Z,20.22
2018-01-07T00:29:53.479Z,20.21
2018-01-07T00:30:55.955Z,20.20
2018-01-07T00:31:58.418Z,20.19
2018-01-07T00:33:00.900Z,20.18
2018-01-07T00:34:03.359Z,20.17
2018-01-07T00:35:05.822Z,20.17
2018-01-07T00:36:08.301Z,20.16
2018-01-07T00:37:10.780Z,20.15
2018-01-07T00:38:13.294Z,20.14
2018-01-07T00:39:15.764Z,20.13
2018-01-07T00:40:18.227Z,20.12
2018-01-07T00:41:20.705Z,20.12
2018-01-07T00:42:23.158Z,20.10
2018-01-07T00:43:25.633Z,20.10
2018-01-07T00:44:28.104Z,20.08
2018-01-07T00:45:30.576Z,20.07
2018-01-07T00:46:33.069Z,20.07
2018-01-07T00:47:35.523Z,20.06
2018-01-07T00:48:37.992Z,20.05
2018-01-07T00:49:40.453Z,20.05
2018-01-07T00:50:42.928Z,20.04
2018-01-07T00:51:45.420Z,20.04
2018-01-07T00:52:47.894Z,20.04
2018-01-07T00:53:50.373Z,20.04
2018-01-07T00:54:52.831Z,20.03
2018-01-07T00:55:55.531Z,20.03
2018-01-07T00:56:58.020Z,20.02
2018-01-07T00:58:00.590Z,20.02
2018-01-07T00:59:03.060Z,20.02
2018-01-07T01:00:05.533Z,20.01
2018-01-07T01:01:08.004Z,20.00
2018-01-07T01:02:11.298Z,19.99
2018-01-07T01:03:13.784Z,19.99
2018-01-07T01:04:16.261Z,19.97
2018-01-07T01:05:18.733Z,19.98
2018-01-07T01:06:21.204Z,19.96
2018-01-07T01:07:23.700Z,19.96
2018-01-07T01:08:26.154Z,19.95
2018-01-07T01:09:28.610Z,19.94
2018-01-07T01:10:31.063Z,19.92
2018-01-07T01:11:33.518Z,19.92
2018-01-07T01:12:35.979Z,19.92
2018-01-07T01:13:38.452Z,19.91
2018-01-07T01:14:40.924Z,19.91
2018-01-07T01:15:43.382Z,19.91
2018-01-07T01:16:45.838Z,19.90
2018-01-07T01:17:48.321Z,19.90
2018-01-07T01:18:50.793Z,19.89
2018-01-07T01:19:53.260Z,19.88
2018-01-07T01:20:55.736Z,19.88
2018-01-07T01:21:58.198Z,19.87
2018-01-07T01:23:00.654Z,19.86
2018-01-07T01:24:03.134Z,19.85
2018-01-07T01:25:05.606Z,19.86
2018-01-07T01:26:08.080Z,19.86
2018-01-07T01:27:10.556Z,19.85
2018-01-07T01:28:13.014Z,19.84
2018-01-07T01:29:15.470Z,19.83
2018-01-07T01:30:17.927Z,19.82
2018-01-07T01:31:20.400Z,19.82
2018-01-07T01:32:22.857Z,19.81
2018-01-07T01:33:25.340Z,19.79
2018-01-07T01:34:27.797Z,19.79
2018-01-07T01:35:30.273Z,19.78
2018-01-07T01:36:32.734Z,19.77
2018-01-07T01:37:35.195Z,19.76
2018-01-07T01:38:37.649Z,19.75
2018-01-07T01:39:40.107Z,19.75
2018-01-07T01:40:42.580Z,19.74
2018-01-07T01:41:45.040Z,19.74
2018-01-07T01:42:47.497Z,19.73
2018-01-07T01:43:49.968Z,19.72
2018-01-07T01:44:52.422Z,19.73
2018-01-07T01:45:54.878Z,19.74
2018-01-07T01:46:57.339Z,19.74
2018-01-07T01:47:59.794Z,19.75
2018-01-07T01:49:14.043Z,19.74
2018-01-07T01:50:16.499Z,19.74
2018-01-07T01:51:19.013Z,19.75
2018-01-07T01:52:21.470Z,19.74
2018-01-07T01:53:23.934Z,19.74
2018-01-07T01:54:26.410Z,19.74
2018-01-07T01:55:28.887Z,19.74
2018-01-07T01:56:31.356Z,19.73
2018-01-07T01:57:33.828Z,19.72
2018-01-07T01:58:36.286Z,19.73
2018-01-07T01:59:38.771Z,19.72
2018-01-07T02:00:41.245Z,19.72
2018-01-07T02:01:43.723Z,19.71
2018-01-07T02:02:46.188Z,19.71
2018-01-07T02:03:48.648Z,19.70
2018-01-07T02:04:51.102Z,19.69
2018-01-07T02:05:53.580Z,19.69
2018-01-07T02:06:56.050Z,19.69
2018-01-07T02:07:58.520Z,19.69
2018-01-07T02:09:01.001Z,19.68
2018-01-07T02:10:03.461Z,19.67
2018-01-07T02:11:05.936Z,19.67
2018-01-07T02:12:08.394Z,19.66
2018-01-07T02:13:10.847Z,19.65
2018-01-07T02:14:13.331Z,19.64
2018-01-07T02:15:15.804Z,19.64
2018-01-07T02:16:18.258Z,19.62
2018-01-07T02:17:20.719Z,19.62
2018-01-07T02:18:23.174Z,19.61
2018-01-07T02:19:25.650Z,19.61
2018-01-07T02:20:28.105Z,19.61
2018-01-07T02:21:30.562Z,19.62
2018-01-07T02:22:33.018Z,19.61
2018-01-07T02:23:35.488Z,19.61
2018-01-07T02:24:37.965Z,19.60
2018-01-07T02:25:40.435Z,19.61
2018-01-07T02:26:42.890Z,19.60
2018-01-07T02:27:45.346Z,19.61
2018-01-07T02:28:47.805Z,19.61
2018-01-07T02:29:50.290Z,19.61
2018-01-07T02:30:52.752Z,19.61
2018-01-07T02:31:55.220Z,19.60
2018-01-07T02:32:57.678Z,19.59
2018-01-07T02:34:00.163Z,19.58
2018-01-07T02:35:02.656Z,19.58
2018-01-07T02:36:05.138Z,19.58
2018-01-07T02:37:07.608Z,19.58
2018-01-07T02:38:10.081Z,19.60
2018-01-07T02:39:12.569Z,19.60
2018-01-07T02:40:15.061Z,19.60
2018-01-07T02:41:17.526Z,19.61
2018-01-07T02:42:19.991Z,19.61
2018-01-07T02:43:22.459Z,19.62
2018-01-07T02:44:24.983Z,19.62
2018-01-07T02:45:27.479Z,19.62
2018-01-07T02:46:29.934Z,19.62
2018-01-07T02:47:32.412Z,19.61
2018-01-07T02:48:34.891Z,19.60
2018-01-07T02:49:37.367Z,19.60
2018-01-07T02:50:39.854Z,19.60
2018-01-07T02:51:42.310Z,19.59
2018-01-07T02:52:44.766Z,19.59
2018-01-07T02:53:47.230Z,19.59
2018-01-07T02:54:49.709Z,19.59
2018-01-07T02:55:52.197Z,19.58
2018-01-07T02:56:54.654Z,19.58
2018-01-07T02:57:57.130Z,19.57
2018-01-07T02:58:59.583Z,19.56
2018-01-07T03:00:02.085Z,19.55
2018-01-07T03:01:04.588Z,19.56
2018-01-07T03:02:07.081Z,19.55
2018-01-07T03:03:09.550Z,19.55
2018-01-07T03:04:12.030Z,19.54
2018-01-07T03:05:14.508Z,19.53
2018-01-07T03:06:17.012Z,19.52
2018-01-07T03:07:19.476Z,19.51
2018-01-07T03:08:21.965Z,19.52
2018-01-07T03:09:24.429Z,19.51
2018-01-07T03:10:26.890Z,19.51
2018-01-07T03:11:29.374Z,19.51
2018-01-07T03:12:31.834Z,19.50
2018-01-07T03:13:34.311Z,19.49
2018-01-07T03:14:36.776Z,19.49
2018-01-07T03:15:39.380Z,19.49
2018-01-07T03:16:41.860Z,19.48
2018-01-07T03:17:44.318Z,19.47
2018-01-07T03:18:46.792Z,19.47
2018-01-07T03:19:49.254Z,19.47
2018-01-07T03:20:51.718Z,19.47
2018-01-07T03:21:54.191Z,19.46
2018-01-07T03:22:56.670Z,19.46
2018-01-07T03:23:59.136Z,19.46
2018-01-07T03:25:01.589Z,19.46
2018-01-07T03:26:04.074Z,19.46
2018-01-07T03:27:06.544Z,19.46
2018-01-07T03:28:09.012Z,19.45
2018-01-07T03:29:11.473Z,19.45
2018-01-07T03:30:13.927Z,19.44
2018-01-07T03:31:16.410Z,19.43
2018-01-07T03:32:18.884Z,19.42
2018-01-07T03:33:21.363Z,19.41
2018-01-07T03:34:23.818Z,19.40
2018-01-07T03:35:26.274Z,19.39
2018-01-07T03:36:28.749Z,19.39
2018-01-07T03:38:33.113Z,19.38
2018-01-07T03:39:35.584Z,19.35
2018-01-07T03:40:38.077Z,19.36
2018-01-07T03:41:40.576Z,19.35
2018-01-07T03:42:43.044Z,19.34
2018-01-07T03:43:45.502Z,19.34
2018-01-07T03:44:47.972Z,19.34
2018-01-07T03:45:50.444Z,19.34
2018-01-07T03:46:52.916Z,19.33
2018-01-07T03:47:55.373Z,19.32
2018-01-07T03:48:57.825Z,19.32
2018-01-07T03:50:00.283Z,19.31
2018-01-07T03:51:02.842Z,19.30
2018-01-07T03:52:05.318Z,19.30
2018-01-07T03:53:07.796Z,19.29
2018-01-07T03:54:10.254Z,19.28
2018-01-07T03:55:12.719Z,19.29
2018-01-07T03:56:15.184Z,19.28
2018-01-07T03:57:17.642Z,19.28
2018-01-07T03:58:20.126Z,19.27
2018-01-07T03:59:22.596Z,19.26
2018-01-07T04:00:25.064Z,19.26
2018-01-07T04:01:27.526Z,19.26
2018-01-07T04:02:29.982Z,19.25
2018-01-07T04:03:33.316Z,19.25
2018-01-07T04:04:35.796Z,19.25
2018-01-07T04:05:38.254Z,19.24
2018-01-07T04:06:40.769Z,19.24
2018-01-07T04:07:43.310Z,19.24
2018-01-07T04:08:45.784Z,19.23
2018-01-07T04:09:48.256Z,19.23
2018-01-07T04:10:50.718Z,19.22
2018-01-07T04:11:53.196Z,19.22
2018-01-07T04:12:55.663Z,19.21
2018-01-07T04:13:58.176Z,19.21
2018-01-07T04:15:00.634Z,19.20
2018-01-07T04:16:03.128Z,19.19
2018-01-07T04:17:05.606Z,19.19
2018-01-07T04:18:08.104Z,19.17
2018-01-07T04:19:10.584Z,19.17
2018-01-07T04:20:13.050Z,19.16
2018-01-07T04:21:15.533Z,19.15
2018-01-07T04:22:17.990Z,19.14
2018-01-07T04:23:20.465Z,19.13
2018-01-07T04:24:22.939Z,19.11
2018-01-07T04:25:25.394Z,19.12
2018-01-07T04:26:27.944Z,19.10
2018-01-07T04:27:30.412Z,19.09
2018-01-07T04:28:32.886Z,19.09
2018-01-07T04:29:35.338Z,19.08
2018-01-07T04:30:37.816Z,19.08
2018-01-07T04:31:40.274Z,19.08
2018-01-07T04:32:42.740Z,19.07
2018-01-07T04:33:45.258Z,19.06
2018-01-07T04:34:47.720Z,19.05
2018-01-07T04:35:50.196Z,19.04
2018-01-07T04:36:52.661Z,19.04
2018-01-07T04:37:55.133Z,19.04
2018-01-07T04:38:57.610Z,19.03
2018-01-07T04:40:00.085Z,19.02
2018-01-07T04:41:02.593Z,19.02
2018-01-07T04:42:05.050Z,19.01
2018-01-07T04:43:07.528Z,19.00
2018-01-07T04:44:10.010Z,18.99
2018-01-07T04:45:12.461Z,18.99
2018-01-07T04:46:14.938Z,18.98
2018-01-07T04:47:17.418Z,18.97
2018-01-07T04:48:19.892Z,18.99
2018-01-07T04:49:22.366Z,18.96
2018-01-07T04:50:24.831Z,18.95
2018-01-07T04:51:27.285Z,18.94
2018-01-07T04:52:29.825Z,18.93
2018-01-07T04:53:32.283Z,18.93
2018-01-07T04:54:34.790Z,18.93
2018-01-07T04:55:37.260Z,18.92
2018-01-07T04:56:39.780Z,18.91
2018-01-07T04:57:42.244Z,18.90
2018-01-07T04:58:44.736Z,18.89
2018-01-07T04:59:47.378Z,18.88
2018-01-07T05:00:49.843Z,18.88
2018-01-07T05:01:52.320Z,18.87
2018-01-07T05:02:54.851Z,18.87
2018-01-07T05:03:57.316Z,18.86
2018-01-07T05:04:59.792Z,18.86
2018-01-07T05:06:02.326Z,18.85
2018-01-07T05:07:04.782Z,18.85
2018-01-07T05:08:07.246Z,18.85
2018-01-07T05:09:09.702Z,18.83
2018-01-07T05:10:12.260Z,18.83
2018-01-07T05:11:14.715Z,18.82
2018-01-07T05:12:17.180Z,18.82
2018-01-07T05:13:19.657Z,18.81
2018-01-07T05:14:22.133Z,18.81
2018-01-07T05:15:24.612Z,18.80
2018-01-07T05:16:27.089Z,18.79
2018-01-07T05:17:29.546Z,18.78
2018-01-07T05:18:32.007Z,18.78
2018-01-07T05:19:34.488Z,18.78
2018-01-07T05:20:36.952Z,18.77
2018-01-07T05:21:39.411Z,18.76
2018-01-07T05:22:41.884Z,18.75
2018-01-07T05:23:44.345Z,18.76
2018-01-07T05:24:46.801Z,18.75
2018-01-07T05:25:49.266Z,18.74
2018-01-07T05:26:51.727Z,18.74
2018-01-07T05:27:54.196Z,18.74
2018-01-07T05:28:56.677Z,18.74
2018-01-07T05:29:59.152Z,18.73
2018-01-07T05:31:01.611Z,18.72
2018-01-07T05:32:04.084Z,18.72
2018-01-07T05:33:06.538Z,18.71
2018-01-07T05:34:09.001Z,18.71
2018-01-07T05:35:11.472Z,18.71
2018-01-07T05:36:13.940Z,18.71
2018-01-07T05:37:16.401Z,18.70
2018-01-07T05:38:18.880Z,18.70
2018-01-07T05:39:21.360Z,18.69
2018-01-07T05:40:23.813Z,18.69
2018-01-07T05:41:26.284Z,18.69
2018-01-07T05:42:28.748Z,18.69
2018-01-07T05:44:32.966Z,18.69
2018-01-07T05:45:35.436Z,18.69
2018-01-07T05:46:37.894Z,18.68
2018-01-07T05:47:40.366Z,18.68
2018-01-07T05:48:42.840Z,18.68
2018-01-07T05:49:45.312Z,18.67
2018-01-07T05:50:47.784Z,18.68
2018-01-07T05:51:50.242Z,18.67
2018-01-07T05:52:52.701Z,18.67
2018-01-07T05:53:55.430Z,18.66
2018-01-07T05:54:57.889Z,18.66
2018-01-07T05:56:00.356Z,18.66
2018-01-07T05:57:02.837Z,18.66
2018-01-07T05:58:05.668Z,18.65
2018-01-07T05:59:08.144Z,18.65
2018-01-07T06:00:10.632Z,18.64
2018-01-07T06:01:13.120Z,18.64
2018-01-07T06:02:15.592Z,18.63
2018-01-07T06:03:18.046Z,18.63
2018-01-07T06:04:20.501Z,18.63
2018-01-07T06:05:22.976Z,18.62
2018-01-07T06:06:25.453Z,18.62
2018-01-07T06:07:27.924Z,18.61
2018-01-07T06:08:30.401Z,18.61
2018-01-07T06:09:32.860Z,18.62
2018-01-07T06:10:35.335Z,18.61
2018-01-07T06:11:37.812Z,18.60
2018-01-07T06:12:40.268Z,18.60
2018-01-07T06:13:42.740Z,18.61
2018-01-07T06:14:45.198Z,18.60
2018-01-07T06:15:47.686Z,18.60
2018-01-07T06:16:50.162Z,18.60
2018-01-07T06:17:52.652Z,18.60
2018-01-07T06:18:55.393Z,18.58
2018-01-07T06:19:57.850Z,18.58
2018-01-07T06:21:00.306Z,18.58
2018-01-07T06:22:02.783Z,18.57
2018-01-07T06:23:05.248Z,18.56
2018-01-07T06:24:07.708Z,18.55
2018-01-07T06:25:10.180Z,18.55
2018-01-07T06:26:12.636Z,18.55
2018-01-07T06:27:15.106Z,18.54
2018-01-07T06:28:17.675Z,18.52
2018-01-07T06:29:20.130Z,18.52
2018-01-07T06:30:22.612Z,18.51
2018-01-07T06:31:25.071Z,18.51
2018-01-07T06:32:27.528Z,18.50
2018-01-07T06:33:30.053Z,18.50
2018-01-07T06:34:32.509Z,18.50
2018-01-07T06:35:34.987Z,18.48
2018-01-07T06:36:37.461Z,18.48
2018-01-07T06:37:39.918Z,18.47
2018-01-07T06:38:42.397Z,18.46
2018-01-07T06:39:44.854Z,18.45
2018-01-07T06:40:47.328Z,18.46
2018-01-07T06:41:49.786Z,18.45
2018-01-07T06:42:52.261Z,18.45
2018-01-07T06:43:54.732Z,18.45
2018-01-07T06:44:57.204Z,18.44
2018-01-07T06:45:59.670Z,18.44
2018-01-07T06:47:02.136Z,18.43
2018-01-07T06:48:04.680Z,18.42
2018-01-07T06:49:07.156Z,18.43
2018-01-07T06:50:09.622Z,18.42
2018-01-07T06:51:12.086Z,18.44
2018-01-07T06:52:14.570Z,18.45
2018-01-07T06:53:17.026Z,18.46
2018-01-07T06:54:19.502Z,18.47
2018-01-07T06:55:21.974Z,18.47
2018-01-07T06:56:24.440Z,18.47
2018-01-07T06:57:26.920Z,18.47
2018-01-07T06:58:29.382Z,18.47
2018-01-07T06:59:31.864Z,18.47
2018-01-07T07:00:34.329Z,18.47
2018-01-07T07:01:36.802Z,18.46
2018-01-07T07:02:39.277Z,18.45
2018-01-07T07:03:41.733Z,18.45
2018-01-07T07:04:44.216Z,18.45
2018-01-07T07:05:46.689Z,18.44
2018-01-07T07:06:49.164Z,18.44
2018-01-07T07:07:51.618Z,18.43
2018-01-07T07:08:54.095Z,18.42
2018-01-07T07:09:56.564Z,18.42
2018-01-07T07:10:59.041Z,18.42
2018-01-07T07:12:01.513Z,18.41
2018-01-07T07:13:03.973Z,18.40
2018-01-07T07:14:06.462Z,18.40
2018-01-07T07:15:08.954Z,18.40
2018-01-07T07:16:11.433Z,18.39
2018-01-07T07:17:13.904Z,18.39
2018-01-07T07:18:16.378Z,18.37
2018-01-07T07:19:18.857Z,18.37
2018-01-07T07:20:21.328Z,18.37
2018-01-07T07:21:23.785Z,18.36
2018-01-07T07:22:26.242Z,18.36
2018-01-07T07:23:28.708Z,18.36
2018-01-07T07:24:31.206Z,18.36
2018-01-07T07:25:33.680Z,18.36
2018-01-07T07:26:36.172Z,18.36
2018-01-07T07:27:38.626Z,18.35
2018-01-07T07:28:41.096Z,18.36
2018-01-07T07:29:43.584Z,18.36
2018-01-07T07:30:46.062Z,18.35
2018-01-07T07:31:48.521Z,18.35
2018-01-07T07:32:50.989Z,18.34
2018-01-07T07:33:53.450Z,18.34
2018-01-07T07:34:55.942Z,18.34
2018-01-07T07:35:58.424Z,18.34
2018-01-07T07:37:00.891Z,18.34
2018-01-07T07:38:03.367Z,18.35
2018-01-07T07:39:05.829Z,18.34
2018-01-07T07:40:08.324Z,18.34
2018-01-07T07:41:10.797Z,18.34
2018-01-07T07:42:13.271Z,18.33
2018-01-07T07:43:15.746Z,18.33
2018-01-07T07:44:18.218Z,18.33
2018-01-07T07:45:20.693Z,18.33
2018-01-07T07:46:23.160Z,18.32
2018-01-07T07:47:25.614Z,18.32
2018-01-07T07:48:28.074Z,18.32
2018-01-07T07:49:30.531Z,18.31
2018-01-07T07:50:33.034Z,18.31
2018-01-07T07:51:35.502Z,18.31
2018-01-07T07:52:38.005Z,18.31
2018-01-07T07:53:40.467Z,18.30
2018-01-07T07:54:42.935Z,18.30
2018-01-07T07:55:45.410Z,18.29
2018-01-07T07:56:47.896Z,18.29
2018-01-07T07:57:50.370Z,18.29
2018-01-07T07:58:52.830Z,18.29
2018-01-07T07:59:55.288Z,18.28
2018-01-07T08:00:57.766Z,18.28
2018-01-07T08:02:00.223Z,18.28
2018-01-07T08:03:02.678Z,18.27
2018-01-07T08:04:05.134Z,18.27
2018-01-07T08:05:07.729Z,18.27
2018-01-07T08:06:10.212Z,18.26
2018-01-07T08:07:12.689Z,18.26
2018-01-07T08:08:15.164Z,18.26
2018-01-07T08:09:17.641Z,18.26
2018-01-07T08:10:20.110Z,18.25
2018-01-07T08:11:22.596Z,18.25
2018-01-07T08:12:25.068Z,18.25
2018-01-07T08:13:27.644Z,18.24
2018-01-07T08:14:30.121Z,18.24
2018-01-07T08:15:32.582Z,18.24
2018-01-07T08:16:35.076Z,18.24
2018-01-07T08:17:37.534Z,18.24
2018-01-07T08:18:40.008Z,18.23
2018-01-07T08:19:42.478Z,18.22
2018-01-07T08:20:44.949Z,18.23
2018-01-07T08:21:47.452Z,18.22
2018-01-07T08:22:49.924Z,18.22
2018-01-07T08:23:52.381Z,18.21
2018-01-07T08:24:54.842Z,18.21
2018-01-07T08:25:57.312Z,18.20
2018-01-07T08:26:59.801Z,18.20
2018-01-07T08:28:02.262Z,18.19
2018-01-07T08:29:04.726Z,18.20
2018-01-07T08:30:07.192Z,18.19
2018-01-07T08:31:09.664Z,18.19
2018-01-07T08:32:12.156Z,18.19
2018-01-07T08:33:14.643Z,18.18
2018-01-07T08:34:17.127Z,18.17
2018-01-07T08:35:19.590Z,18.18
2018-01-07T08:36:22.046Z,18.17
2018-01-07T08:37:24.536Z,18.17
2018-01-07T08:38:27.009Z,18.17
2018-01-07T08:39:29.477Z,18.16
2018-01-07T08:40:31.930Z,18.16
2018-01-07T08:41:34.404Z,18.16
2018-01-07T08:42:36.900Z,18.16
2018-01-07T08:43:39.362Z,18.15
2018-01-07T08:44:41.818Z,18.15
2018-01-07T08:45:44.294Z,18.14
2018-01-07T08:46:46.776Z,18.13
2018-01-07T08:47:49.259Z,18.13
2018-01-07T08:48:51.732Z,18.12
2018-01-07T08:49:54.203Z,18.13
2018-01-07T08:50:56.691Z,18.13
2018-01-07T08:51:59.166Z,18.14
2018-01-07T08:53:01.660Z,18.15
2018-01-07T08:54:04.118Z,18.15
2018-01-07T08:55:06.574Z,18.16
2018-01-07T08:56:09.038Z,18.19
2018-01-07T08:57:11.494Z,18.23
2018-01-07T08:58:14.000Z,18.23
2018-01-07T08:59:16.485Z,18.23
2018-01-07T09:00:18.975Z,18.23
2018-01-07T09:01:21.464Z,18.22
2018-01-07T09:02:23.918Z,18.21
2018-01-07T09:03:26.404Z,18.21
2018-01-07T09:04:28.886Z,18.20
2018-01-07T09:05:31.357Z,18.20
2018-01-07T09:06:33.818Z,18.20
2018-01-07T09:07:36.288Z,18.18
2018-01-07T09:08:38.766Z,18.18
2018-01-07T09:09:41.252Z,18.17
2018-01-07T09:10:43.706Z,18.16
2018-01-07T09:11:46.171Z,18.15
2018-01-07T09:12:48.642Z,18.14
2018-01-07T09:13:51.119Z,18.13
2018-01-07T09:14:53.607Z,18.11
2018-01-07T09:15:56.084Z,18.11
2018-01-07T09:16:58.557Z,18.11
2018-01-07T09:18:01.029Z,18.11
2018-01-07T09:19:03.533Z,18.10
2018-01-07T09:20:06.004Z,18.10
2018-01-07T09:21:08.462Z,18.09
2018-01-07T09:22:10.936Z,18.08
2018-01-07T09:23:13.399Z,18.08
2018-01-07T09:24:15.900Z,18.07
2018-01-07T09:25:18.367Z,18.07
2018-01-07T09:26:20.823Z,18.05
2018-01-07T09:27:23.293Z,18.06
2018-01-07T09:28:25.769Z,18.04
2018-01-07T09:29:28.251Z,18.05
2018-01-07T09:30:30.718Z,18.06
2018-01-07T09:31:33.189Z,18.06
2018-01-07T09:32:35.650Z,18.09
2018-01-07T09:33:38.111Z,18.10
2018-01-07T09:34:40.592Z,18.11
2018-01-07T09:35:43.054Z,18.11
2018-01-07T09:36:45.526Z,18.08
2018-01-07T09:37:48.012Z,18.04
2018-01-07T09:38:50.492Z,18.00
2018-01-07T09:39:53.001Z,17.93
2018-01-07T09:40:55.458Z,17.93
2018-01-07T09:41:57.928Z,17.93
2018-01-07T09:43:00.387Z,17.94
2018-01-07T09:44:02.856Z,17.96
2018-01-07T09:45:05.348Z,17.96
2018-01-07T09:46:07.811Z,17.99
2018-01-07T09:47:10.271Z,18.00
2018-01-07T09:48:12.744Z,18.00
2018-01-07T09:49:15.229Z,17.99
2018-01-07T09:50:17.710Z,17.97
2018-01-07T09:51:20.166Z,17.93
2018-01-07T09:52:22.644Z,17.89
2018-01-07T09:53:25.132Z,17.85
2018-01-07T09:54:27.586Z,17.82
2018-01-07T09:55:30.065Z,17.78
2018-01-07T09:56:32.709Z,17.73
2018-01-07T09:57:35.179Z,17.69
2018-01-07T09:58:37.636Z,17.63
2018-01-07T09:59:40.860Z,17.58
2018-01-07T10:00:43.356Z,17.54
2018-01-07T10:01:45.840Z,17.52
2018-01-07T10:02:48.303Z,17.50
2018-01-07T10:03:50.784Z,17.47
2018-01-07T10:04:53.254Z,17.46
2018-01-07T10:05:55.758Z,17.44
2018-01-07T10:06:58.240Z,17.44
2018-01-07T10:08:00.712Z,17.44
2018-01-07T10:09:03.213Z,17.42
2018-01-07T10:10:05.673Z,17.40
2018-01-07T10:11:08.165Z,17.38
2018-01-07T10:12:10.626Z,17.35
2018-01-07T10:13:13.113Z,17.43
2018-01-07T10:14:15.588Z,17.62
2018-01-07T10:15:18.060Z,17.78
2018-01-07T10:16:20.569Z,18.04
2018-01-07T10:17:23.068Z,18.26
2018-01-07T10:18:25.576Z,18.51
2018-01-07T10:19:28.044Z,18.78
2018-01-07T10:20:30.498Z,19.04
2018-01-07T10:21:32.972Z,19.15
2018-01-07T10:22:35.444Z,19.26
2018-01-07T10:23:37.912Z,19.38
2018-01-07T10:24:40.370Z,19.47
2018-01-07T10:25:42.839Z,19.53
2018-01-07T10:26:45.297Z,19.61
2018-01-07T10:27:47.758Z,19.63
2018-01-07T10:28:50.214Z,19.72
2018-01-07T10:29:52.688Z,19.73
2018-01-07T10:30:55.183Z,19.79
2018-01-07T10:31:57.661Z,19.84
2018-01-07T10:33:00.114Z,19.92
2018-01-07T10:34:02.591Z,20.04
2018-01-07T10:35:05.069Z,20.13
2018-01-07T10:36:07.574Z,20.20
2018-01-07T10:37:10.060Z,20.28
2018-01-07T10:38:12.518Z,20.34
2018-01-07T10:39:15.107Z,20.36
2018-01-07T10:40:17.566Z,20.39
2018-01-07T10:41:20.042Z,20.40
2018-01-07T10:42:22.516Z,20.43
2018-01-07T10:43:24.984Z,20.41
2018-01-07T10:44:27.451Z,20.41
2018-01-07T10:45:29.920Z,20.41
2018-01-07T10:46:32.396Z,20.41
2018-01-07T10:47:34.881Z,20.39
2018-01-07T10:48:37.338Z,20.44
2018-01-07T10:49:39.811Z,20.44
2018-01-07T10:50:42.283Z,20.47
2018-01-07T10:51:44.806Z,20.50
2018-01-07T10:52:47.283Z,20.53
2018-01-07T10:53:49.760Z,20.52
2018-01-07T10:54:52.232Z,20.51
2018-01-07T10:55:54.710Z,20.50
2018-01-07T10:56:57.204Z,20.50
2018-01-07T10:57:59.683Z,20.48
2018-01-07T10:59:02.152Z,20.45
2018-01-07T11:00:04.632Z,20.44
2018-01-07T11:01:12.666Z,20.40
2018-01-07T11:02:20.803Z,20.36
2018-01-07T11:03:23.269Z,20.32
2018-01-07T11:04:25.729Z,20.30
2018-01-07T11:05:28.205Z,20.27
2018-01-07T11:06:30.662Z,20.24
2018-01-07T11:07:33.160Z,20.21
2018-01-07T11:08:35.633Z,20.18
2018-01-07T11:09:38.094Z,20.14
2018-01-07T11:10:40.569Z,20.11
2018-01-07T11:11:43.023Z,20.07
2018-01-07T11:12:45.554Z,20.08
2018-01-07T11:13:48.020Z,20.05
2018-01-07T11:14:50.482Z,20.02
2018-01-07T11:15:52.943Z,19.99
2018-01-07T11:16:55.402Z,19.96
2018-01-07T11:17:57.878Z,19.93
2018-01-07T11:19:00.353Z,19.93
2018-01-07T11:20:02.837Z,19.91
2018-01-07T11:21:05.319Z,19.87
2018-01-07T11:22:07.797Z,19.85
2018-01-07T11:23:10.288Z,19.82
2018-01-07T11:24:12.746Z,19.80
2018-01-07T11:25:15.252Z,19.79
2018-01-07T11:26:17.815Z,19.78
2018-01-07T11:27:20.275Z,19.75
2018-01-07T11:28:22.755Z,19.72
2018-01-07T11:29:26.484Z,19.71
2018-01-07T11:30:28.995Z,19.72
2018-01-07T11:31:31.562Z,19.75
2018-01-07T11:32:34.024Z,19.80
2018-01-07T11:33:36.524Z,19.84
2018-01-07T11:34:38.990Z,19.94
2018-01-07T11:35:41.502Z,20.00
2018-01-07T11:36:43.986Z,20.04
2018-01-07T11:37:46.485Z,20.08
2018-01-07T11:38:48.985Z,20.10
2018-01-07T11:39:51.468Z,20.13
2018-01-07T11:40:53.931Z,20.16
2018-01-07T11:41:56.395Z,20.18
2018-01-07T11:42:58.898Z,20.20
2018-01-07T11:44:01.425Z,20.21
2018-01-07T11:45:03.908Z,20.21
2018-01-07T11:46:07.102Z,20.17
2018-01-07T11:47:09.568Z,20.15
2018-01-07T11:48:12.027Z,20.15
2018-01-07T11:49:14.536Z,20.14
2018-01-07T11:50:17.000Z,20.12
2018-01-07T11:51:19.509Z,20.08
2018-01-07T11:52:21.988Z,20.06
2018-01-07T11:53:24.450Z,20.03
2018-01-07T11:54:26.943Z,20.01
2018-01-07T11:55:29.461Z,19.99
2018-01-07T11:56:31.926Z,20.01
2018-01-07T11:57:34.416Z,20.00
2018-01-07T11:58:36.882Z,19.98
2018-01-07T11:59:39.409Z,19.95
2018-01-07T12:00:41.881Z,19.94
2018-01-07T12:01:44.351Z,19.91
2018-01-07T12:02:46.829Z,19.88
2018-01-07T12:03:49.330Z,19.85
2018-01-07T12:04:51.837Z,19.82
2018-01-07T12:05:54.302Z,19.77
2018-01-07T12:06:56.777Z,19.71
2018-01-07T12:07:59.244Z,19.67
2018-01-07T12:09:01.722Z,19.63
2018-01-07T12:10:04.229Z,19.60
2018-01-07T12:11:06.739Z,19.57
2018-01-07T12:12:09.217Z,19.55
2018-01-07T12:13:11.692Z,19.53
2018-01-07T12:14:14.169Z,19.51
2018-01-07T12:15:16.663Z,19.49
2018-01-07T12:16:19.130Z,19.47
2018-01-07T12:17:21.589Z,19.46
2018-01-07T12:18:24.060Z,19.44
2018-01-07T12:19:26.524Z,19.42
2018-01-07T12:20:29.005Z,19.41
2018-01-07T12:21:31.487Z,19.40
2018-01-07T12:22:34.695Z,19.38
2018-01-07T12:23:37.557Z,19.37
2018-01-07T12:24:40.083Z,19.36
2018-01-07T12:25:42.657Z,19.36
2018-01-07T12:26:45.136Z,19.35
2018-01-07T12:27:47.608Z,19.36
2018-01-07T12:28:50.098Z,19.36
2018-01-07T12:29:52.907Z,19.35
2018-01-07T12:30:55.385Z,19.33
2018-01-07T12:31:57.943Z,19.34
2018-01-07T12:33:00.443Z,19.33
2018-01-07T12:34:02.920Z,19.32
2018-01-07T12:35:05.383Z,19.30
2018-01-07T12:36:07.984Z,19.30
2018-01-07T12:37:10.503Z,19.33
2018-01-07T12:38:12.983Z,19.34
2018-01-07T12:39:15.460Z,19.36
2018-01-07T12:40:17.945Z,19.40
2018-01-07T12:41:20.406Z,19.45
2018-01-07T12:42:22.885Z,19.54
2018-01-07T12:43:25.439Z,19.59
2018-01-07T12:44:28.006Z,19.64
2018-01-07T12:45:30.507Z,19.70
2018-01-07T12:46:32.974Z,19.68
2018-01-07T12:47:35.459Z,19.67
2018-01-07T12:48:37.923Z,19.68
2018-01-07T12:49:40.390Z,19.70
2018-01-07T12:50:42.871Z,19.69
2018-01-07T12:51:45.444Z,19.72
2018-01-07T12:52:47.936Z,19.70
2018-01-07T12:53:50.477Z,19.71
2018-01-07T12:54:54.432Z,19.71
2018-01-07T12:55:56.944Z,19.66
2018-01-07T12:56:59.429Z,19.65
2018-01-07T12:58:01.974Z,19.64
2018-01-07T12:59:04.608Z,19.65
2018-01-07T13:00:07.080Z,19.64
2018-01-07T13:01:09.585Z,19.63
2018-01-07T13:02:12.060Z,19.63
2018-01-07T13:03:14.542Z,19.63
2018-01-07T13:04:17.021Z,19.62
2018-01-07T13:05:19.486Z,19.61
2018-01-07T13:06:21.954Z,19.58
2018-01-07T13:07:24.436Z,19.58
2018-01-07T13:08:26.905Z,19.57
2018-01-07T13:09:29.370Z,19.55
2018-01-07T13:10:31.835Z,19.52
2018-01-07T13:11:34.307Z,19.50
2018-01-07T13:12:37.113Z,19.49
2018-01-07T13:13:39.672Z,19.47
2018-01-07T13:14:42.190Z,19.45
2018-01-07T13:15:44.686Z,19.43
2018-01-07T13:16:47.164Z,19.42
2018-01-07T13:17:49.627Z,19.41
2018-01-07T13:18:52.231Z,19.40
2018-01-07T13:19:54.713Z,19.38
2018-01-07T13:20:57.194Z,19.36
2018-01-07T13:21:59.706Z,19.34
2018-01-07T13:23:02.798Z,19.33
2018-01-07T13:24:05.447Z,19.30
2018-01-07T13:25:07.981Z,19.30
2018-01-07T13:26:10.463Z,19.30
2018-01-07T13:27:12.926Z,19.31